Time;durP1;ratioP1;P1;durP2;ratioP2;P2;SDS_P1;SDS_P2;PMS_P1;PMS_P2;Temp;Humidity;BMP_temperature;BMP_pressure;BME280_temperature;BME280_humidity;BME280_pressure;Samples;Min_cycle;Max_cycle;Signal;HPM_P1;HPM_P2
2023/03/13 00:01:23;;;;;;;18.95;4.45;;;8.60;99.90;;;;;;5095854;28;20203;-64
2023/03/13 00:03:50;;;;;;;15.48;4.53;;;8.60;99.90;;;;;;5096397;28;20311;-64
2023/03/13 00:06:17;;;;;;;19.75;5.00;;;8.60;99.90;;;;;;5096290;28;20207;-65
2023/03/13 00:08:45;;;;;;;20.98;4.40;;;8.60;99.90;;;;;;5097383;28;20222;-66
2023/03/13 00:11:14;;;;;;;21.17;4.93;;;8.50;99.90;;;;;;5103436;28;20267;-64
2023/03/13 00:13:43;;;;;;;12.23;3.58;;;8.50;99.90;;;;;;5104617;28;20216;-66
2023/03/13 00:16:11;;;;;;;19.70;4.63;;;8.50;99.90;;;;;;5103240;28;20220;-64
2023/03/13 00:18:38;;;;;;;18.48;4.20;;;8.50;99.90;;;;;;5101634;28;20199;-65
2023/03/13 00:21:07;;;;;;;23.80;4.95;;;8.60;99.90;;;;;;5100394;28;20576;-63
2023/03/13 00:23:34;;;;;;;21.70;4.35;;;8.60;99.90;;;;;;5099621;28;20238;-64
2023/03/13 00:26:03;;;;;;;11.30;3.72;;;8.60;99.90;;;;;;5097010;28;20192;-64
2023/03/13 00:28:31;;;;;;;11.88;4.25;;;8.50;99.90;;;;;;5100107;28;20223;-65
2023/03/13 00:31:04;;;;;;;27.45;5.30;;;8.50;99.90;;;;;;5100021;28;20646;-65
2023/03/13 00:33:32;;;;;;;17.15;3.90;;;8.60;99.90;;;;;;5099169;28;20225;-64
2023/03/13 00:36:00;;;;;;;12.45;3.65;;;8.60;99.90;;;;;;5098146;28;20231;-64
2023/03/13 00:38:28;;;;;;;13.23;4.38;;;8.60;99.90;;;;;;5100584;28;20203;-65
2023/03/13 00:41:00;;;;;;;7.53;3.10;;;8.60;99.90;;;;;;5104281;28;20201;-65
2023/03/13 00:43:27;;;;;;;13.98;5.10;;;8.60;99.90;;;;;;5098713;28;20227;-64
2023/03/13 00:45:54;;;;;;;13.85;4.72;;;8.70;99.90;;;;;;5105870;28;20205;-64
2023/03/13 00:48:22;;;;;;;19.13;4.22;;;8.70;99.90;;;;;;5099480;28;20200;-65
2023/03/13 00:50:50;;;;;;;15.38;4.28;;;8.70;99.90;;;;;;5098110;28;20197;-63
2023/03/13 00:53:17;;;;;;;16.70;3.95;;;8.70;99.90;;;;;;5098437;28;20238;-64
2023/03/13 00:55:52;;;;;;;15.95;5.13;;;8.80;99.90;;;;;;5100118;28;20224;-64
2023/03/13 00:58:19;;;;;;;17.88;4.45;;;8.80;99.90;;;;;;5103698;28;20610;-64
2023/03/13 01:00:46;;;;;;;12.40;3.80;;;8.80;99.90;;;;;;5110387;28;20200;-65
2023/03/13 01:03:13;;;;;;;14.55;4.80;;;8.90;99.90;;;;;;5111376;28;20226;-64
2023/03/13 01:05:41;;;;;;;10.30;4.20;;;8.90;99.90;;;;;;5112034;28;20196;-65
2023/03/13 01:08:07;;;;;;;10.07;3.80;;;8.90;99.90;;;;;;5111726;28;20199;-64
2023/03/13 01:10:34;;;;;;;11.45;4.10;;;8.90;99.90;;;;;;5108181;28;20214;-64
2023/03/13 01:13:03;;;;;;;9.77;4.18;;;9.00;99.90;;;;;;5103932;28;20719;-65
2023/03/13 01:15:30;;;;;;;14.93;3.83;;;9.00;99.90;;;;;;5100810;28;20199;-64
2023/03/13 01:17:57;;;;;;;14.25;3.45;;;9.00;99.90;;;;;;5100026;28;20696;-65
2023/03/13 01:20:23;;;;;;;10.77;3.20;;;9.00;99.90;;;;;;5102586;28;20200;-63
2023/03/13 01:22:51;;;;;;;14.18;4.20;;;9.00;99.90;;;;;;5097865;28;20224;-64
2023/03/13 01:25:18;;;;;;;17.65;4.05;;;9.00;99.90;;;;;;5098126;28;20211;-64
2023/03/13 01:27:45;;;;;;;12.55;3.63;;;9.00;99.90;;;;;;5099601;28;20197;-64
2023/03/13 01:30:12;;;;;;;9.00;3.88;;;9.00;99.90;;;;;;5100792;28;20196;-65
2023/03/13 01:32:39;;;;;;;11.38;4.25;;;9.00;99.90;;;;;;5102071;28;20216;-65
2023/03/13 01:35:06;;;;;;;11.35;4.03;;;9.00;99.90;;;;;;5102058;28;20218;-64
2023/03/13 01:37:33;;;;;;;15.88;4.30;;;9.00;99.90;;;;;;5099243;28;20586;-65
2023/03/13 01:40:02;;;;;;;14.32;3.80;;;8.90;99.90;;;;;;5097932;28;20674;-64
2023/03/13 01:42:29;;;;;;;15.05;4.60;;;8.90;99.90;;;;;;5098237;28;20713;-65
2023/03/13 01:44:57;;;;;;;11.07;3.83;;;8.90;99.90;;;;;;5099544;28;20212;-65
2023/03/13 01:47:24;;;;;;;16.23;4.50;;;8.80;99.90;;;;;;5098651;28;20696;-64
2023/03/13 01:49:54;;;;;;;13.40;3.90;;;8.80;99.90;;;;;;5096724;28;20207;-64
2023/03/13 01:52:25;;;;;;;14.05;4.72;;;8.70;99.90;;;;;;5096312;28;20248;-65
2023/03/13 01:54:57;;;;;;;9.35;3.90;;;8.70;99.90;;;;;;5097046;28;20218;-64
2023/03/13 01:57:27;;;;;;;11.52;4.07;;;8.60;99.90;;;;;;5096581;28;20219;-64
2023/03/13 01:59:59;;;;;;;10.70;3.88;;;8.50;99.90;;;;;;5097512;28;20185;-64
2023/03/13 02:02:26;;;;;;;14.57;3.72;;;8.50;99.90;;;;;;5096632;28;20736;-64
2023/03/13 02:04:57;;;;;;;32.85;5.13;;;8.40;99.90;;;;;;5096503;28;20672;-64
2023/03/13 02:07:27;;;;;;;9.52;4.30;;;8.40;99.90;;;;;;5096852;28;20193;-64
2023/03/13 02:09:56;;;;;;;17.23;4.90;;;8.30;99.90;;;;;;5096896;28;20210;-64
2023/03/13 02:12:30;;;;;;;10.40;3.20;;;8.30;99.90;;;;;;5096398;28;20224;-64
2023/03/13 02:15:00;;;;;;;18.13;3.97;;;8.30;99.90;;;;;;5097121;28;20194;-64
2023/03/13 02:17:27;;;;;;;10.88;3.08;;;8.20;99.90;;;;;;5096701;28;20227;-64
2023/03/13 02:19:54;;;;;;;15.02;3.65;;;8.20;99.90;;;;;;5097316;28;20208;-63
2023/03/13 02:22:28;;;;;;;10.27;4.03;;;8.20;99.90;;;;;;5100453;28;20238;-65
2023/03/13 02:24:59;;;;;;;17.40;4.53;;;8.10;99.90;;;;;;5096721;28;20647;-64
2023/03/13 02:27:28;;;;;;;12.35;3.90;;;8.10;99.90;;;;;;5096612;28;20189;-65
2023/03/13 02:29:55;;;;;;;18.05;4.20;;;8.10;99.90;;;;;;5095837;28;20207;-63
2023/03/13 02:32:22;;;;;;;16.63;4.78;;;8.10;99.90;;;;;;5100056;28;20224;-64
2023/03/13 02:34:53;;;;;;;15.35;3.45;;;8.10;99.90;;;;;;5104766;28;20216;-64
2023/03/13 02:37:21;;;;;;;11.57;3.60;;;8.10;99.90;;;;;;5110438;28;20215;-65
2023/03/13 02:39:50;;;;;;;12.80;4.22;;;8.10;99.90;;;;;;5112454;28;20211;-65
2023/03/13 02:42:19;;;;;;;14.20;4.53;;;8.10;99.90;;;;;;5107750;28;20228;-64
2023/03/13 02:44:47;;;;;;;12.85;4.32;;;8.10;99.90;;;;;;5097802;28;20204;-64
2023/03/13 02:47:18;;;;;;;9.90;4.07;;;8.10;99.90;;;;;;5097193;28;20200;-65
2023/03/13 02:49:45;;;;;;;11.73;5.68;;;8.10;99.90;;;;;;5095632;28;20185;-63
2023/03/13 02:52:16;;;;;;;14.73;4.20;;;8.10;99.90;;;;;;5096274;28;20718;-64
2023/03/13 02:54:45;;;;;;;11.90;3.45;;;8.10;99.90;;;;;;5097953;28;20204;-64
2023/03/13 02:57:12;;;;;;;10.70;3.53;;;8.10;99.90;;;;;;5097394;28;20570;-64
2023/03/13 02:59:38;;;;;;;17.48;4.40;;;8.10;99.90;;;;;;5096518;28;20201;-64
2023/03/13 03:02:07;;;;;;;13.25;4.28;;;8.10;99.90;;;;;;5096748;28;20217;-64
2023/03/13 03:04:33;;;;;;;12.45;3.65;;;8.10;99.90;;;;;;5095729;28;20208;-64
2023/03/13 03:07:00;;;;;;;15.88;4.20;;;8.10;99.90;;;;;;5095839;28;20196;-64
2023/03/13 03:09:27;;;;;;;15.60;3.85;;;8.20;99.90;;;;;;5095924;28;20207;-65
2023/03/13 03:11:54;;;;;;;8.57;3.50;;;8.20;99.90;;;;;;5095284;28;20200;-64
2023/03/13 03:14:20;;;;;;;10.13;3.80;;;8.20;99.90;;;;;;5095133;28;20696;-64
2023/03/13 03:16:47;;;;;;;12.15;3.75;;;8.20;99.90;;;;;;5095316;28;20247;-63
2023/03/13 03:19:15;;;;;;;12.40;3.72;;;8.20;99.90;;;;;;5094955;28;20204;-63
2023/03/13 03:21:42;;;;;;;12.07;3.20;;;8.20;99.90;;;;;;5095320;28;20230;-63
2023/03/13 03:24:09;;;;;;;12.20;4.47;;;8.20;99.90;;;;;;5095079;28;20271;-63
2023/03/13 03:26:36;;;;;;;8.93;3.45;;;8.20;99.90;;;;;;5095183;28;20197;-63
2023/03/13 03:29:03;;;;;;;19.90;4.63;;;8.20;99.90;;;;;;5095911;28;20205;-64
2023/03/13 03:31:30;;;;;;;12.43;4.05;;;8.20;99.90;;;;;;5096074;28;20196;-65
2023/03/13 03:33:57;;;;;;;13.05;4.13;;;8.20;99.90;;;;;;5096085;28;20243;-64
2023/03/13 03:36:25;;;;;;;11.43;3.60;;;8.10;99.90;;;;;;5095377;28;20227;-64
2023/03/13 03:38:53;;;;;;;12.30;3.80;;;8.10;99.90;;;;;;5095581;28;20200;-63
2023/03/13 03:41:19;;;;;;;10.77;3.35;;;8.10;99.90;;;;;;5095820;28;20227;-65
2023/03/13 03:43:47;;;;;;;12.80;4.20;;;8.10;99.90;;;;;;5096331;28;20226;-64
2023/03/13 03:46:14;;;;;;;12.45;3.63;;;8.10;99.90;;;;;;5105697;28;20577;-64
2023/03/13 03:48:41;;;;;;;9.45;3.58;;;8.10;99.90;;;;;;5105313;28;20214;-64
2023/03/13 03:51:08;;;;;;;13.98;4.50;;;8.10;99.90;;;;;;5101597;28;20204;-63
2023/03/13 03:53:36;;;;;;;12.02;3.40;;;8.20;99.90;;;;;;5100933;28;20230;-64
2023/03/13 03:56:03;;;;;;;12.00;4.20;;;8.20;99.90;;;;;;5104146;28;20232;-64
2023/03/13 03:58:30;;;;;;;6.40;2.80;;;8.20;99.90;;;;;;5108792;28;20220;-64
2023/03/13 04:00:57;;;;;;;15.18;4.63;;;8.20;99.90;;;;;;5097231;28;20206;-65
2023/03/13 04:03:25;;;;;;;11.48;3.05;;;8.30;99.90;;;;;;5095566;28;20614;-64
2023/03/13 04:05:52;;;;;;;16.25;3.88;;;8.30;99.90;;;;;;5094703;28;20204;-64
2023/03/13 04:11:20;;;;;;;11.68;3.80;;;8.30;99.90;;;;;;5115242;27;1258588;-64
2023/03/13 04:13:47;;;;;;;11.60;4.28;;;8.30;99.90;;;;;;5114260;28;20216;-64
2023/03/13 04:16:14;;;;;;;13.13;3.53;;;8.30;99.90;;;;;;5112575;28;20196;-64
2023/03/13 04:18:40;;;;;;;20.00;3.90;;;8.30;99.90;;;;;;5112908;28;20209;-64
2023/03/13 04:21:08;;;;;;;17.75;4.45;;;8.30;99.90;;;;;;5113259;28;20195;-64
2023/03/13 04:23:34;;;;;;;13.43;2.92;;;8.30;99.90;;;;;;5112251;28;20234;-64
2023/03/13 04:26:01;;;;;;;7.22;3.53;;;8.30;99.90;;;;;;5112833;28;20211;-63
2023/03/13 04:28:29;;;;;;;12.57;3.53;;;8.30;99.90;;;;;;5120838;28;20196;-64
2023/03/13 04:30:57;;;;;;;10.85;2.88;;;8.30;99.90;;;;;;5123458;28;20297;-64
2023/03/13 04:33:23;;;;;;;10.35;3.30;;;8.30;99.90;;;;;;5122314;28;20334;-64
2023/03/13 04:35:50;;;;;;;7.68;2.83;;;8.30;99.90;;;;;;5120440;28;20204;-64
2023/03/13 04:38:17;;;;;;;8.35;3.58;;;8.30;99.90;;;;;;5122222;28;20199;-64
2023/03/13 04:40:44;;;;;;;10.48;3.35;;;8.20;99.90;;;;;;5122015;28;20203;-63
2023/03/13 04:43:10;;;;;;;14.05;5.22;;;8.20;99.90;;;;;;5121378;28;20696;-63
2023/03/13 04:45:38;;;;;;;9.27;2.90;;;8.20;99.90;;;;;;5120261;28;20200;-63
2023/03/13 04:48:06;;;;;;;8.60;3.45;;;8.20;99.90;;;;;;5122196;28;20211;-64
2023/03/13 04:50:32;;;;;;;14.68;3.78;;;8.20;99.90;;;;;;5123091;28;20248;-66
2023/03/13 04:52:59;;;;;;;14.55;4.18;;;8.20;99.90;;;;;;5123675;28;20223;-64
2023/03/13 04:55:26;;;;;;;12.80;3.33;;;8.20;99.90;;;;;;5123610;28;20200;-65
2023/03/13 04:57:53;;;;;;;12.70;3.65;;;8.20;99.90;;;;;;5122048;28;20219;-65
2023/03/13 05:00:20;;;;;;;9.70;3.63;;;8.20;99.90;;;;;;5121657;28;20209;-64
2023/03/13 05:02:48;;;;;;;9.98;4.00;;;8.30;99.90;;;;;;5122176;28;20230;-64
2023/03/13 05:05:15;;;;;;;12.00;3.47;;;8.30;99.90;;;;;;5121767;28;20206;-63
2023/03/13 05:07:41;;;;;;;10.50;4.25;;;8.30;99.90;;;;;;5120238;28;20204;-64
2023/03/13 05:10:09;;;;;;;12.93;4.38;;;8.20;99.90;;;;;;5119179;28;20223;-64
2023/03/13 05:12:36;;;;;;;11.50;3.88;;;8.20;99.90;;;;;;5116086;28;20231;-64
2023/03/13 05:15:03;;;;;;;14.18;3.88;;;8.20;99.90;;;;;;5117314;28;20211;-63
2023/03/13 05:17:29;;;;;;;11.88;3.63;;;8.20;99.90;;;;;;5118714;28;20196;-64
2023/03/13 05:19:57;;;;;;;11.75;3.83;;;8.20;99.90;;;;;;5117708;28;20299;-64
2023/03/13 05:22:24;;;;;;;8.20;3.72;;;8.30;99.90;;;;;;5102259;28;20222;-64
2023/03/13 05:24:51;;;;;;;8.63;3.42;;;8.20;99.90;;;;;;5099314;28;20201;-64
2023/03/13 05:27:18;;;;;;;8.32;3.08;;;8.20;99.90;;;;;;5098241;28;20208;-63
2023/03/13 05:29:45;;;;;;;11.07;4.05;;;8.20;99.90;;;;;;5100933;28;20215;-64
2023/03/13 05:32:11;;;;;;;6.93;2.92;;;8.30;99.90;;;;;;5100499;28;20216;-63
2023/03/13 05:34:38;;;;;;;7.60;2.95;;;8.30;99.90;;;;;;5098817;28;20223;-64
2023/03/13 05:37:06;;;;;;;12.25;4.00;;;8.30;99.90;;;;;;5097921;28;20227;-63
2023/03/13 05:39:33;;;;;;;14.32;3.88;;;8.30;99.90;;;;;;5093377;28;20204;-65
2023/03/13 05:42:00;;;;;;;8.50;3.25;;;8.30;99.90;;;;;;5096543;28;20224;-63
2023/03/13 05:44:26;;;;;;;10.32;4.05;;;8.30;99.90;;;;;;5096476;28;20291;-65
2023/03/13 05:46:53;;;;;;;8.90;3.40;;;8.30;99.90;;;;;;5096590;28;20302;-64
2023/03/13 05:49:20;;;;;;;5.68;2.65;;;8.30;99.90;;;;;;5095070;28;20203;-64
2023/03/13 05:51:47;;;;;;;11.48;3.53;;;8.30;99.90;;;;;;5095434;28;20228;-64
2023/03/13 05:54:15;;;;;;;9.13;2.67;;;8.30;99.90;;;;;;5096804;28;20303;-64
2023/03/13 05:56:41;;;;;;;6.90;3.08;;;8.40;99.90;;;;;;5095245;28;20199;-64
2023/03/13 05:59:08;;;;;;;7.63;2.88;;;8.40;99.90;;;;;;5095933;28;20203;-64
2023/03/13 06:01:35;;;;;;;8.93;2.85;;;8.40;99.90;;;;;;5097407;28;20199;-64
2023/03/13 06:04:02;;;;;;;10.43;2.75;;;8.40;99.90;;;;;;5097865;28;20204;-64
2023/03/13 06:06:28;;;;;;;7.93;2.95;;;8.50;99.90;;;;;;5096016;28;20199;-64
2023/03/13 06:08:55;;;;;;;7.47;2.60;;;8.50;99.90;;;;;;5099309;28;20210;-63
2023/03/13 06:11:23;;;;;;;5.07;2.40;;;8.60;99.90;;;;;;5096712;28;20226;-63
2023/03/13 06:13:51;;;;;;;6.75;2.00;;;8.60;99.90;;;;;;5096396;28;20221;-65
2023/03/13 06:16:18;;;;;;;6.07;2.20;;;8.70;99.90;;;;;;5097947;28;20200;-64
2023/03/13 06:18:44;;;;;;;5.45;2.40;;;8.70;99.90;;;;;;5096141;28;20200;-63
2023/03/13 06:21:11;;;;;;;5.18;2.15;;;8.70;99.90;;;;;;5096848;28;20267;-63
2023/03/13 06:23:38;;;;;;;4.65;2.00;;;8.80;99.90;;;;;;5096922;28;20298;-62
2023/03/13 06:26:05;;;;;;;5.18;1.80;;;8.80;99.90;;;;;;5096769;28;20203;-64
2023/03/13 06:28:33;;;;;;;5.95;2.88;;;8.80;99.90;;;;;;5092474;28;20200;-65
2023/03/13 06:31:04;;;;;;;8.88;2.10;;;8.80;99.90;;;;;;5092379;28;20590;-63
2023/03/13 06:33:31;;;;;;;4.93;2.50;;;8.80;99.90;;;;;;5090618;28;20220;-62
2023/03/13 06:35:59;;;;;;;3.97;1.63;;;8.90;99.90;;;;;;5095914;28;20205;-64
2023/03/13 06:38:27;;;;;;;4.15;2.00;;;8.90;99.90;;;;;;5096366;28;20660;-64
2023/03/13 06:40:54;;;;;;;5.47;2.20;;;8.90;99.90;;;;;;5095940;28;20670;-64
2023/03/13 06:43:21;;;;;;;5.57;2.53;;;8.90;99.90;;;;;;5093659;28;20224;-63
2023/03/13 06:45:50;;;;;;;5.78;1.90;;;9.00;99.90;;;;;;5090970;28;20602;-64
2023/03/13 06:48:17;;;;;;;2.97;2.20;;;9.00;99.90;;;;;;5094408;28;20196;-65
2023/03/13 06:50:44;;;;;;;3.58;2.05;;;9.00;99.90;;;;;;5095031;28;20227;-64
2023/03/13 06:53:15;;;;;;;4.38;2.85;;;9.10;99.90;;;;;;5097567;28;20221;-64
2023/03/13 06:55:42;;;;;;;3.25;2.20;;;9.10;99.90;;;;;;5091644;28;20197;-64
2023/03/13 06:58:09;;;;;;;4.13;1.80;;;9.20;99.90;;;;;;5093766;28;20207;-65
2023/03/13 07:00:38;;;;;;;4.75;2.42;;;9.20;99.90;;;;;;5094127;28;20197;-64
2023/03/13 07:03:06;;;;;;;4.78;2.00;;;9.20;99.90;;;;;;5095076;28;20234;-62
2023/03/13 07:05:33;;;;;;;3.00;1.60;;;9.20;99.90;;;;;;5093774;28;20197;-64
2023/03/13 07:08:00;;;;;;;4.75;2.00;;;9.20;99.90;;;;;;5100265;28;20201;-64
2023/03/13 07:10:26;;;;;;;6.93;1.95;;;9.20;99.90;;;;;;5094959;28;20220;-63
2023/03/13 07:12:53;;;;;;;4.75;2.05;;;9.20;99.90;;;;;;5092806;28;20336;-64
2023/03/13 07:15:20;;;;;;;7.47;2.00;;;9.30;99.90;;;;;;5093911;28;20579;-64
2023/03/13 07:17:47;;;;;;;5.43;2.10;;;9.30;99.90;;;;;;5093771;28;20208;-64
2023/03/13 07:20:15;;;;;;;3.45;1.88;;;9.30;99.90;;;;;;5096868;28;20196;-64
2023/03/13 07:22:42;;;;;;;2.83;2.30;;;9.40;99.90;;;;;;5093729;28;20568;-63
2023/03/13 07:25:09;;;;;;;6.13;2.08;;;9.40;99.90;;;;;;5095610;28;20197;-65
2023/03/13 07:27:37;;;;;;;4.88;1.90;;;9.50;99.90;;;;;;5095599;28;20203;-63
2023/03/13 07:30:04;;;;;;;3.40;1.90;;;9.50;99.90;;;;;;5097324;28;20245;-64
2023/03/13 07:32:32;;;;;;;2.03;1.80;;;9.50;99.90;;;;;;5096986;28;20227;-64
2023/03/13 07:34:59;;;;;;;3.65;2.13;;;9.60;99.90;;;;;;5094373;28;20263;-64
2023/03/13 07:37:27;;;;;;;3.85;1.90;;;9.60;99.90;;;;;;5098355;28;20206;-65
2023/03/13 07:39:54;;;;;;;2.58;1.30;;;9.70;99.90;;;;;;5101474;28;20211;-65
2023/03/13 07:42:21;;;;;;;4.43;2.28;;;9.70;99.90;;;;;;5102880;28;20227;-63
2023/03/13 07:44:47;;;;;;;6.97;2.28;;;9.70;99.90;;;;;;5101206;28;20200;-63
2023/03/13 07:47:14;;;;;;;4.68;2.33;;;9.70;99.90;;;;;;5099877;28;20200;-64
2023/03/13 07:49:42;;;;;;;4.97;3.88;;;9.70;99.90;;;;;;5099282;28;20203;-65
2023/03/13 07:52:09;;;;;;;1.40;1.30;;;9.80;99.90;;;;;;5100115;28;20232;-64
2023/03/13 07:54:37;;;;;;;3.53;2.10;;;9.80;99.90;;;;;;5100830;28;20201;-64
2023/03/13 07:57:04;;;;;;;3.38;2.10;;;9.80;99.90;;;;;;5101483;28;20642;-64
2023/03/13 07:59:31;;;;;;;2.95;1.83;;;9.90;99.90;;;;;;5103654;28;20200;-63
2023/03/13 08:01:58;;;;;;;1.73;1.63;;;9.90;99.90;;;;;;5103677;28;20223;-62
2023/03/13 08:04:24;;;;;;;3.97;1.58;;;10.00;99.90;;;;;;5099590;28;20462;-64
2023/03/13 08:06:53;;;;;;;4.57;2.27;;;10.00;99.90;;;;;;5094161;28;20196;-64
2023/03/13 08:09:20;;;;;;;3.10;2.13;;;10.10;99.90;;;;;;5093776;28;20461;-64
2023/03/13 08:11:48;;;;;;;1.97;1.57;;;10.10;99.90;;;;;;5093926;28;20478;-63
2023/03/13 08:14:15;;;;;;;4.13;1.98;;;10.20;99.90;;;;;;5092795;28;20452;-64
2023/03/13 08:16:41;;;;;;;4.03;2.20;;;10.30;99.90;;;;;;5094509;28;20200;-64
2023/03/13 08:19:08;;;;;;;3.93;1.90;;;10.30;99.90;;;;;;5093265;28;20442;-63
2023/03/13 08:21:36;;;;;;;4.40;2.15;;;10.40;99.90;;;;;;5094049;28;20439;-65
2023/03/13 08:24:05;;;;;;;3.45;1.80;;;10.40;99.90;;;;;;5094363;28;20211;-68
2023/03/13 08:26:34;;;;;;;3.50;2.50;;;10.50;99.90;;;;;;5074477;28;20197;-65
2023/03/13 08:29:04;;;;;;;3.03;2.43;;;10.60;99.90;;;;;;5074209;28;20470;-65
2023/03/13 08:31:33;;;;;;;2.50;2.20;;;10.60;99.90;;;;;;5093217;28;20604;-64
2023/03/13 08:34:00;;;;;;;5.27;2.47;;;10.70;99.90;;;;;;5097862;28;20446;-64
2023/03/13 08:36:28;;;;;;;3.20;2.40;;;10.80;99.90;;;;;;5095106;28;20469;-64
2023/03/13 08:38:58;;;;;;;3.77;2.70;;;10.80;99.90;;;;;;5093606;28;20484;-64
2023/03/13 08:41:27;;;;;;;4.47;1.93;;;10.90;99.90;;;;;;5094569;28;20435;-65
2023/03/13 08:43:54;;;;;;;2.60;2.30;;;10.90;99.90;;;;;;5093666;28;20478;-64
2023/03/13 08:46:23;;;;;;;3.37;2.40;;;11.00;99.90;;;;;;5093372;28;21069;-64
2023/03/13 08:48:51;;;;;;;3.77;2.73;;;11.10;99.90;;;;;;5093730;28;20462;-65
2023/03/13 08:51:19;;;;;;;4.83;2.60;;;11.20;99.90;;;;;;5094692;28;20479;-64
2023/03/13 08:53:46;;;;;;;2.57;2.37;;;11.30;99.90;;;;;;5094240;28;20470;-64
2023/03/13 08:56:15;;;;;;;2.83;2.63;;;11.40;99.90;;;;;;5093905;28;20462;-64
2023/03/13 08:58:42;;;;;;;7.50;2.30;;;11.40;99.90;;;;;;5097668;28;20516;-62
2023/03/13 09:01:10;;;;;;;3.07;2.10;;;11.50;99.90;;;;;;5097160;28;20459;-65
2023/03/13 09:03:39;;;;;;;2.23;2.03;;;11.60;99.90;;;;;;5099071;28;20462;-63
2023/03/13 09:06:07;;;;;;;2.63;2.43;;;11.70;99.90;;;;;;5096864;28;20472;-64
2023/03/13 09:08:35;;;;;;;2.20;2.00;;;11.80;99.90;;;;;;5098847;28;20451;-64
2023/03/13 09:11:03;;;;;;;2.53;1.90;;;11.80;99.90;;;;;;5096284;28;20486;-63
2023/03/13 09:13:32;;;;;;;3.37;1.90;;;11.90;99.90;;;;;;5097312;28;20467;-64
2023/03/13 09:16:00;;;;;;;3.10;2.00;;;12.00;99.90;;;;;;5096287;28;20983;-64
2023/03/13 09:18:28;;;;;;;3.97;2.13;;;12.10;99.90;;;;;;5096761;28;20464;-65
2023/03/13 09:20:56;;;;;;;1.73;1.60;;;12.20;99.90;;;;;;5096311;28;20455;-64
2023/03/13 09:23:23;;;;;;;2.63;2.43;;;12.20;99.90;;;;;;5096358;28;20486;-64
2023/03/13 09:25:53;;;;;;;2.83;2.00;;;12.30;99.90;;;;;;5097159;28;20452;-64
2023/03/13 09:28:20;;;;;;;2.90;2.40;;;12.30;99.90;;;;;;5095927;28;21021;-64
2023/03/13 09:30:48;;;;;;;2.47;2.10;;;12.40;99.90;;;;;;5099452;28;20471;-63
2023/03/13 09:33:15;;;;;;;2.20;2.00;;;12.50;99.90;;;;;;5103344;28;20472;-64
2023/03/13 09:35:42;;;;;;;2.77;1.90;;;12.60;99.90;;;;;;5104338;28;20465;-64
2023/03/13 09:38:10;;;;;;;4.77;2.20;;;12.70;99.90;;;;;;5103820;28;20485;-65
2023/03/13 09:40:41;;;;;;;2.57;2.00;;;12.80;99.90;;;;;;5106203;28;20444;-65
2023/03/13 09:43:22;;;;;;;4.07;2.27;;;12.80;99.90;;;;;;5108180;28;20479;-63
2023/03/13 09:45:51;;;;;;;2.10;1.80;;;12.90;99.90;;;;;;5104710;28;20466;-64
2023/03/13 09:48:28;;;;;;;2.80;1.97;;;13.00;99.90;;;;;;5104755;28;20501;-63
2023/03/13 09:51:01;;;;;;;2.27;1.90;;;13.00;99.90;;;;;;5104504;28;20476;-65
2023/03/13 09:53:37;;;;;;;2.43;1.70;;;13.10;99.90;;;;;;5104147;28;20462;-64
2023/03/13 09:56:06;;;;;;;3.17;2.10;;;13.10;99.90;;;;;;5101039;28;20809;-66
2023/03/13 09:58:34;;;;;;;1.90;1.70;;;13.20;99.90;;;;;;5096517;28;20449;-64
2023/03/13 10:01:03;;;;;;;3.50;1.80;;;13.30;99.90;;;;;;5095782;28;20560;-64
2023/03/13 10:03:35;;;;;;;5.60;2.00;;;13.40;99.90;;;;;;5096438;28;20473;-64
2023/03/13 10:06:06;;;;;;;4.83;1.57;;;13.40;99.90;;;;;;5096636;28;20467;-64
2023/03/13 10:08:35;;;;;;;6.20;2.10;;;13.50;99.90;;;;;;5097608;28;20792;-65
2023/03/13 10:11:06;;;;;;;3.37;1.60;;;13.50;99.90;;;;;;5096314;28;20473;-64
2023/03/13 10:13:40;;;;;;;2.70;1.73;;;13.50;99.90;;;;;;5095809;28;20476;-65
2023/03/13 10:16:10;;;;;;;1.67;1.50;;;13.50;99.90;;;;;;5096168;28;20458;-65
2023/03/13 10:18:38;;;;;;;2.10;1.83;;;13.50;99.90;;;;;;5095491;28;20783;-65
2023/03/13 10:21:16;;;;;;;2.40;1.80;;;13.50;99.90;;;;;;5097182;28;20456;-63
2023/03/13 10:23:51;;;;;;;2.90;1.80;;;13.60;99.90;;;;;;5097473;28;20492;-64
2023/03/13 10:26:23;;;;;;;2.00;1.80;;;13.50;99.90;;;;;;5096223;28;20457;-65
2023/03/13 10:28:51;;;;;;;6.53;2.23;;;13.50;99.90;;;;;;5100224;28;20447;-65
2023/03/13 10:31:25;;;;;;;1.90;1.80;;;13.60;99.90;;;;;;5097743;28;20826;-65
2023/03/13 10:33:52;;;;;;;3.00;2.23;;;13.60;99.90;;;;;;5096784;28;20487;-65
2023/03/13 10:36:19;;;;;;;3.10;1.90;;;13.60;99.90;;;;;;5098077;28;20449;-65
2023/03/13 10:38:49;;;;;;;9.03;2.20;;;13.80;99.90;;;;;;5102352;28;20473;-65
2023/03/13 10:41:31;;;;;;;3.43;1.60;;;13.90;99.90;;;;;;5104912;28;20912;-65
2023/03/13 10:44:01;;;;;;;5.17;2.03;;;14.00;99.90;;;;;;5108042;28;20465;-65
2023/03/13 10:46:30;;;;;;;2.50;1.70;;;14.10;99.90;;;;;;5103056;28;20568;-66
2023/03/13 10:49:00;;;;;;;2.00;1.77;;;14.30;99.90;;;;;;5101422;28;20864;-66
2023/03/13 10:51:35;;;;;;;2.50;1.77;;;14.50;99.90;;;;;;5126731;22;20486;-63
2023/03/13 10:54:14;;;;;;;2.23;1.80;;;14.70;99.90;;;;;;5076747;28;20477;-62
2023/03/13 10:56:42;;;;;;;2.13;1.47;;;14.90;99.90;;;;;;5076881;28;20462;-63
2023/03/13 10:59:23;;;;;;;2.20;1.67;;;15.10;99.90;;;;;;5077032;28;20466;-64
2023/03/13 11:01:51;;;;;;;2.20;1.50;;;15.30;99.90;;;;;;5086401;28;20474;-62
2023/03/13 11:04:29;;;;;;;4.50;1.53;;;15.40;99.90;;;;;;5095564;28;20469;-63
2023/03/13 11:07:01;;;;;;;1.93;1.57;;;15.50;99.90;;;;;;5096996;28;20458;-62
2023/03/13 11:09:30;;;;;;;3.00;2.17;;;15.80;99.90;;;;;;5097885;28;20435;-63
2023/03/13 11:12:03;;;;;;;2.03;1.90;;;16.00;99.90;;;;;;5095412;28;20594;-64
2023/03/13 11:14:30;;;;;;;2.20;1.90;;;16.00;99.90;;;;;;5094920;28;20423;-62
2023/03/13 11:17:03;;;;;;;3.60;1.97;;;15.90;99.90;;;;;;5093411;28;20463;-62
2023/03/13 11:19:42;;;;;;;3.07;1.70;;;15.80;99.90;;;;;;5093400;28;20426;-62
2023/03/13 11:22:25;;;;;;;4.13;1.97;;;15.70;99.90;;;;;;5092698;28;20469;-62
2023/03/13 11:25:02;;;;;;;3.20;2.30;;;15.70;99.90;;;;;;5093106;28;20447;-62
2023/03/13 11:27:35;;;;;;;2.63;1.80;;;16.00;99.90;;;;;;5094171;28;20447;-62
2023/03/13 11:30:16;;;;;;;1.90;1.67;;;16.20;99.90;;;;;;5095326;28;20428;-62
2023/03/13 11:32:45;;;;;;;4.33;2.30;;;16.30;99.90;;;;;;5095996;28;20483;-63
2023/03/13 11:35:27;;;;;;;2.80;1.90;;;16.40;99.90;;;;;;5097017;28;20447;-63
2023/03/13 11:37:56;;;;;;;3.50;2.20;;;16.40;99.90;;;;;;5095745;28;20607;-63
2023/03/13 11:40:29;;;;;;;3.90;2.30;;;16.60;99.90;;;;;;5094923;28;20472;-63
2023/03/13 11:43:15;;;;;;;3.67;2.03;;;16.80;99.90;;;;;;5095807;28;20485;-62
2023/03/13 11:46:13;;;;;;;3.23;1.80;;;16.90;99.90;;;;;;5095869;28;20540;-61
2023/03/13 11:49:08;;;;;;;3.00;1.60;;;16.90;99.90;;;;;;5093483;28;20465;-63
2023/03/13 11:51:48;;;;;;;3.17;1.80;;;17.00;99.90;;;;;;5092072;28;20492;-62
2023/03/13 11:54:37;;;;;;;5.40;2.20;;;17.00;99.90;;;;;;5084999;28;20929;-62
2023/03/13 11:57:12;;;;;;;3.87;2.10;;;17.00;99.90;;;;;;5093257;28;20443;-63
2023/03/13 11:59:50;;;;;;;2.20;1.50;;;17.00;99.90;;;;;;5111665;28;20840;-62
2023/03/13 12:02:23;;;;;;;3.60;2.30;;;17.00;99.30;;;;;;5100029;28;20459;-62
2023/03/13 12:04:55;;;;;;;4.47;2.00;;;17.10;98.60;;;;;;5095321;28;20517;-63
2023/03/13 12:07:28;;;;;;;2.20;1.70;;;17.20;97.70;;;;;;5094449;28;20468;-63
2023/03/13 12:10:00;;;;;;;2.97;1.80;;;17.20;97.00;;;;;;5094409;28;20497;-63
2023/03/13 12:12:37;;;;;;;3.10;1.80;;;17.30;96.60;;;;;;5094739;28;20864;-63
2023/03/13 12:15:17;;;;;;;3.17;1.83;;;17.40;95.70;;;;;;5092550;28;20467;-62
2023/03/13 12:17:49;;;;;;;2.37;1.57;;;17.40;95.00;;;;;;5094236;28;20801;-63
2023/03/13 12:20:22;;;;;;;2.27;1.73;;;17.40;94.60;;;;;;5088792;28;20450;-64
2023/03/13 12:22:56;;;;;;;4.07;1.73;;;17.30;93.60;;;;;;5074128;28;20455;-62
2023/03/13 12:25:27;;;;;;;4.23;2.20;;;17.30;92.50;;;;;;5094019;28;20463;-62
2023/03/13 12:28:04;;;;;;;2.27;1.57;;;17.30;92.10;;;;;;5092373;28;20464;-63
2023/03/13 12:30:37;;;;;;;4.63;1.73;;;17.30;91.00;;;;;;5092418;28;20454;-63
2023/03/13 12:33:17;;;;;;;3.83;1.63;;;17.50;90.20;;;;;;5096628;28;21021;-62
2023/03/13 12:35:49;;;;;;;2.63;1.23;;;17.60;87.10;;;;;;5078844;28;20446;-61
2023/03/13 12:38:21;;;;;;;2.70;1.90;;;17.60;85.60;;;;;;5097455;28;20471;-62
2023/03/13 12:40:52;;;;;;;2.03;1.40;;;17.70;85.50;;;;;;5096108;28;20475;-62
2023/03/13 12:43:26;;;;;;;2.83;1.77;;;17.80;85.70;;;;;;5096144;28;20465;-62
2023/03/13 12:46:13;;;;;;;3.83;1.80;;;18.00;84.40;;;;;;5097574;28;20454;-63
2023/03/13 12:49:02;;;;;;;2.50;1.97;;;18.10;82.70;;;;;;5096120;28;20460;-62
2023/03/13 12:51:43;;;;;;;4.70;1.67;;;18.30;82.00;;;;;;5077806;28;21004;-62
2023/03/13 12:54:37;;;;;;;3.23;1.93;;;18.30;81.20;;;;;;5093323;28;20578;-61
2023/03/13 12:57:35;;;;;;;1.80;1.60;;;18.40;79.00;;;;;;5097686;28;20586;-64
2023/03/13 13:00:13;;;;;;;1.80;1.70;;;18.10;76.50;;;;;;5071690;28;20461;-61
2023/03/13 13:02:40;;;;;;;2.63;1.90;;;17.90;77.40;;;;;;5097115;28;20484;-62
2023/03/13 13:05:18;;;;;;;3.33;1.67;;;17.80;78.50;;;;;;5096920;28;20461;-62